Wilsons Promontory Light, Australia
Current Conditions -  °F | °C
As of 2:30 AM on Thursday 23 Oct 2014 (Local Time) from YMEN Reporting Station
Overcast Overcast  
Wind Chill: 59°   Ceiling: 600
Heat Index: 59°   Visibility: 5mi
Dew Point: 55°   Wind: 10mph
Humidity: 88%   Direction: 200°SSW
Pressure: 30.09"   Gusts: NA
Location:  39.12°S, 146.42°E
Report Text: YMEN 221530Z AUTO 20009KT 8000 // OVC006 OVC010 15/13 Q1019
Loading
Personal Weather Stations






























Interactive Weather Map
Tropical Storm Tracking
New forecast layout! Learn more

10-Day Weather Forecast

Advertisements
Track Severe Weather on mobile